Time;durP1;ratioP1;P1;durP2;ratioP2;P2;SDS_P1;SDS_P2;PMS_P1;PMS_P2;Temp;Humidity;BMP_temperature;BMP_pressure;BME280_temperature;BME280_humidity;BME280_pressure;Samples;Min_cycle;Max_cycle;Signal;HPM_P1;HPM_P2
2021/03/28 00:00:56;;;;;;;15.68;10.27;;;7.30;99.90;;;;;;5012732;28;20040;-69
2021/03/28 00:03:35;;;;;;;21.65;10.48;;;7.00;99.90;;;;;;5031852;28;20021;-68
2021/03/28 00:06:28;;;;;;;14.73;10.35;;;7.30;99.90;;;;;;5022324;28;20091;-69
2021/03/28 00:09:16;;;;;;;14.30;10.07;;;7.20;99.90;;;;;;5030553;28;20030;-69
2021/03/28 00:11:56;;;;;;;15.65;9.82;;;7.20;99.90;;;;;;5029318;28;20150;-68
2021/03/28 00:14:44;;;;;;;18.38;9.52;;;6.90;99.90;;;;;;5029246;28;20149;-69
2021/03/28 00:17:27;;;;;;;15.10;8.90;;;6.70;99.90;;;;;;5026148;28;20060;-68
2021/03/28 00:20:09;;;;;;;13.23;9.18;;;6.90;99.90;;;;;;5026232;28;20057;-68
2021/03/28 00:22:46;;;;;;;14.60;8.60;;;7.10;99.90;;;;;;5031064;28;20485;-69
2021/03/28 00:25:35;;;;;;;19.30;8.73;;;7.00;99.90;;;;;;5017095;28;20029;-68
2021/03/28 00:28:08;;;;;;;14.88;7.72;;;7.00;99.90;;;;;;5021660;28;20029;-69
2021/03/28 00:30:36;;;;;;;13.00;7.95;;;6.90;99.90;;;;;;5019398;28;20042;-69
2021/03/28 00:33:22;;;;;;;16.42;8.05;;;6.80;99.90;;;;;;5017314;28;20049;-69
2021/03/28 00:36:02;;;;;;;13.20;8.70;;;6.80;99.90;;;;;;5023789;28;20041;-68
2021/03/28 00:38:30;;;;;;;14.60;9.35;;;6.60;99.90;;;;;;5029968;28;20714;-69
2021/03/28 00:41:20;;;;;;;13.18;8.40;;;6.70;99.90;;;;;;5016544;28;20036;-68
2021/03/28 00:43:54;;;;;;;13.32;7.85;;;6.70;99.90;;;;;;5029824;28;20041;-69
2021/03/28 00:46:50;;;;;;;16.17;7.88;;;6.70;99.90;;;;;;5028337;28;20101;-69
2021/03/28 00:49:30;;;;;;;11.45;7.38;;;6.80;99.90;;;;;;5027617;28;20075;-69
2021/03/28 00:52:04;;;;;;;13.07;7.22;;;6.70;99.90;;;;;;5025879;28;20512;-69
2021/03/28 00:54:42;;;;;;;15.32;7.82;;;6.70;99.90;;;;;;5025652;28;20100;-69
2021/03/28 00:57:18;;;;;;;14.18;8.15;;;6.80;99.90;;;;;;5027458;28;20026;-68
2021/03/28 00:59:53;;;;;;;11.82;7.35;;;6.60;99.90;;;;;;5018037;28;20481;-69
2021/03/28 01:02:26;;;;;;;13.93;7.38;;;6.50;99.90;;;;;;5015305;28;20018;-69
2021/03/28 01:05:24;;;;;;;13.10;7.00;;;6.40;99.90;;;;;;5015359;28;20573;-69
2021/03/28 01:07:59;;;;;;;12.40;7.35;;;6.40;99.90;;;;;;5028695;28;20038;-68
2021/03/28 01:10:49;;;;;;;14.90;6.85;;;6.50;99.90;;;;;;5022159;28;20099;-68
2021/03/28 01:13:52;;;;;;;14.98;6.53;;;6.60;99.90;;;;;;5026168;28;20065;-69
2021/03/28 01:16:39;;;;;;;12.88;6.68;;;6.60;99.90;;;;;;5027314;28;20728;-68
2021/03/28 01:19:17;;;;;;;15.20;6.70;;;6.50;99.90;;;;;;5026024;28;20093;-68
2021/03/28 01:21:56;;;;;;;12.50;6.93;;;6.60;99.90;;;;;;5026974;28;20083;-69
2021/03/28 01:24:51;;;;;;;16.50;7.28;;;6.60;99.90;;;;;;5026520;28;20577;-68
2021/03/28 01:27:31;;;;;;;12.20;6.65;;;6.50;99.90;;;;;;5029049;28;20025;-69
2021/03/28 01:30:14;;;;;;;12.32;6.10;;;6.50;99.90;;;;;;5023857;28;20036;-69
2021/03/28 01:32:47;;;;;;;9.45;6.13;;;6.30;99.90;;;;;;5020918;28;20025;-69
2021/03/28 01:35:13;;;;;;;11.63;6.28;;;6.30;99.90;;;;;;5023578;28;20092;-69
2021/03/28 01:37:47;;;;;;;11.88;6.78;;;6.20;99.90;;;;;;5026100;28;20126;-69
2021/03/28 01:40:33;;;;;;;12.05;6.10;;;6.20;99.90;;;;;;5022367;28;20030;-69
2021/03/28 01:43:05;;;;;;;;;;;6.30;99.90;;;;;;5029308;28;20041;-69
2021/03/28 01:45:54;;;;;;;8.52;6.18;;;6.10;99.90;;;;;;5020076;28;19915;-69
2021/03/28 01:48:37;;;;;;;9.82;6.07;;;6.10;99.90;;;;;;5021005;28;20037;-69
2021/03/28 01:51:27;;;;;;;17.30;6.90;;;6.10;99.90;;;;;;5023915;28;20041;-69
2021/03/28 01:54:14;;;;;;;10.38;6.53;;;6.20;99.90;;;;;;5028261;28;20112;-69
2021/03/28 01:57:01;;;;;;;18.52;7.75;;;6.00;99.90;;;;;;5027239;28;20052;-69
2021/03/28 01:59:31;;;;;;;;;;;6.00;99.90;;;;;;5025909;28;20029;-69
2021/03/28 02:02:35;;;;;;;11.52;6.25;;;5.90;99.90;;;;;;5019029;28;19909;-69
2021/03/28 02:05:30;;;;;;;10.77;6.57;;;5.80;99.90;;;;;;5015839;28;20076;-69
2021/03/28 02:08:17;;;;;;;12.25;6.90;;;6.00;99.90;;;;;;5021073;28;20506;-69
2021/03/28 02:11:14;;;;;;;9.32;5.80;;;6.20;99.90;;;;;;5023411;28;20112;-69
2021/03/28 02:14:03;;;;;;;13.73;6.15;;;6.00;99.90;;;;;;5010644;28;20064;-69
2021/03/28 02:16:46;;;;;;;12.20;6.13;;;5.80;99.90;;;;;;5018701;28;20407;-69
2021/03/28 02:19:12;;;;;;;10.45;5.70;;;5.70;99.90;;;;;;5012731;28;20022;-69
2021/03/28 02:22:01;;;;;;;10.50;6.35;;;5.70;99.90;;;;;;5018119;28;20101;-69
2021/03/28 02:24:48;;;;;;;15.38;6.97;;;5.70;99.90;;;;;;5012610;28;20090;-69
2021/03/28 02:27:19;;;;;;;;;;;5.70;99.90;;;;;;5018458;28;20026;-68
2021/03/28 02:30:04;;;;;;;8.50;5.95;;;5.70;99.90;;;;;;5013516;28;19933;-68
2021/03/28 02:33:18;;;;;;;9.63;6.72;;;5.70;99.90;;;;;;5015390;28;20540;-69
2021/03/28 02:35:56;;;;;;;9.98;5.88;;;5.50;99.90;;;;;;5019691;28;20034;-69
2021/03/28 02:38:31;;;;;;;9.23;6.30;;;5.60;99.90;;;;;;5010230;28;20100;-68
2021/03/28 02:41:07;;;;;;;7.13;5.68;;;5.40;99.90;;;;;;5022722;28;20025;-68
2021/03/28 02:43:43;;;;;;;13.33;6.80;;;5.30;99.90;;;;;;5029788;28;20521;-68
2021/03/28 02:46:48;;;;;;;11.10;6.10;;;5.40;99.90;;;;;;5020396;28;20133;-69
2021/03/28 02:49:43;;;;;;;11.65;6.05;;;5.40;99.90;;;;;;5012309;28;20064;-68
2021/03/28 02:52:19;;;;;;;8.18;6.35;;;5.50;99.90;;;;;;5016091;28;20037;-68
2021/03/28 02:54:48;;;;;;;;;;;5.40;99.90;;;;;;5013450;28;20495;-69
2021/03/28 02:58:01;;;;;;;9.88;6.05;;;5.40;99.90;;;;;;5017187;28;19912;-69
2021/03/28 03:00:31;;;;;;;9.93;6.68;;;5.50;99.90;;;;;;5013755;28;20042;-69
2021/03/28 03:03:20;;;;;;;11.60;5.70;;;5.20;99.90;;;;;;5011197;28;20159;-69
2021/03/28 03:05:46;;;;;;;7.80;5.30;;;5.30;99.90;;;;;;5015205;28;20030;-68
2021/03/28 03:08:40;;;;;;;7.22;5.20;;;5.40;99.90;;;;;;5009689;28;20061;-68
2021/03/28 03:11:27;;;;;;;8.38;5.85;;;5.50;99.90;;;;;;5017843;28;20045;-68
2021/03/28 03:13:59;;;;;;;6.90;5.45;;;5.50;99.90;;;;;;5027441;28;20025;-68
2021/03/28 03:16:29;;;;;;;7.50;5.43;;;5.30;99.90;;;;;;5018997;28;20087;-68
2021/03/28 03:19:45;;;;;;;12.65;6.25;;;5.20;99.90;;;;;;5010445;28;20029;-69
2021/03/28 03:22:44;;;;;;;9.40;5.70;;;5.20;99.90;;;;;;5018620;28;20029;-69
2021/03/28 03:25:23;;;;;;;10.38;6.32;;;5.10;99.90;;;;;;5022284;28;20096;-69
2021/03/28 03:28:13;;;;;;;8.88;5.28;;;5.10;99.90;;;;;;5028942;28;20050;-69
2021/03/28 03:31:28;;;;;;;7.93;5.32;;;5.10;99.90;;;;;;5026612;28;20046;-69
2021/03/28 03:34:15;;;;;;;10.02;6.22;;;5.20;99.90;;;;;;4995369;28;20029;-69
2021/03/28 03:36:49;;;;;;;;;;;5.00;99.90;;;;;;5009333;28;20046;-69
2021/03/28 03:39:30;;;;;;;13.00;5.35;;;5.00;99.90;;;;;;5017268;28;19910;-69
2021/03/28 03:42:13;;;;;;;8.20;5.70;;;4.90;99.90;;;;;;5030441;28;20496;-69
2021/03/28 03:44:57;;;;;;;9.15;5.82;;;4.80;99.90;;;;;;5026272;28;20053;-68
2021/03/28 03:47:31;;;;;;;8.60;5.22;;;4.90;99.90;;;;;;5031668;28;20029;-68
2021/03/28 03:50:22;;;;;;;8.35;5.30;;;4.60;99.90;;;;;;5025941;28;20521;-68
2021/03/28 03:53:04;;;;;;;9.90;5.75;;;4.80;99.90;;;;;;5023593;28;20025;-68
2021/03/28 03:56:01;;;;;;;7.00;5.03;;;4.80;99.90;;;;;;5023427;28;20061;-68
2021/03/28 03:58:36;;;;;;;12.00;5.18;;;4.70;99.90;;;;;;5014958;28;20479;-68
2021/03/28 04:01:21;;;;;;;10.23;5.80;;;4.60;99.90;;;;;;5020859;28;20489;-68
2021/03/28 04:04:04;;;;;;;4.85;4.28;;;4.50;99.90;;;;;;5019932;28;20617;-69
2021/03/28 04:06:55;;;;;;;6.95;5.07;;;4.70;99.90;;;;;;5027158;28;20099;-69
2021/03/28 04:09:42;;;;;;;10.43;5.90;;;4.70;99.90;;;;;;5028749;28;20101;-68
2021/03/28 04:12:49;;;;;;;6.75;5.03;;;4.80;99.90;;;;;;5026113;28;20057;-68
2021/03/28 04:15:41;;;;;;;7.50;5.38;;;4.80;99.90;;;;;;5026018;28;20033;-68
2021/03/28 04:18:19;;;;;;;9.38;5.30;;;4.70;99.90;;;;;;5019072;28;20037;-68
2021/03/28 04:21:12;;;;;;;6.90;5.60;;;4.70;99.90;;;;;;5021022;28;20061;-68
2021/03/28 04:24:08;;;;;;;17.65;6.68;;;4.70;99.90;;;;;;5031366;28;20038;-68
2021/03/28 04:26:47;;;;;;;11.55;5.68;;;4.90;99.90;;;;;;5027174;28;20029;-68
2021/03/28 04:29:15;;;;;;;12.45;6.05;;;4.70;99.90;;;;;;5029582;28;20029;-68
2021/03/28 04:31:41;;;;;;;10.13;6.07;;;4.90;99.90;;;;;;5023947;28;20430;-68
2021/03/28 04:34:16;;;;;;;8.43;5.80;;;4.70;99.90;;;;;;5022326;28;20033;-68
2021/03/28 04:37:08;;;;;;;11.18;6.22;;;4.50;99.90;;;;;;5027866;28;20036;-69
2021/03/28 04:40:02;;;;;;;7.70;6.28;;;4.30;99.90;;;;;;5023215;28;20038;-68
2021/03/28 04:42:51;;;;;;;9.77;6.10;;;4.30;99.90;;;;;;5025759;28;20021;-68
2021/03/28 04:45:41;;;;;;;7.70;5.60;;;4.30;99.90;;;;;;5026739;28;20056;-68
2021/03/28 04:48:35;;;;;;;9.38;5.75;;;4.60;99.90;;;;;;5020620;28;20025;-68
2021/03/28 04:51:17;;;;;;;10.75;5.78;;;4.50;99.90;;;;;;5019168;28;20040;-68
2021/03/28 04:54:11;;;;;;;10.85;6.25;;;4.50;99.90;;;;;;5016646;28;20029;-69
2021/03/28 04:56:45;;;;;;;6.75;4.63;;;4.50;99.90;;;;;;5023689;28;20379;-68
2021/03/28 04:59:10;;;;;;;6.18;5.20;;;4.50;99.90;;;;;;5028976;28;20076;-68
2021/03/28 05:01:51;;;;;;;8.98;4.35;;;4.30;99.90;;;;;;5022203;28;20029;-68
2021/03/28 05:04:20;;;;;;;7.60;3.90;;;4.40;99.90;;;;;;5027681;28;20466;-69
2021/03/28 05:07:16;;;;;;;4.72;3.70;;;4.20;99.90;;;;;;5024448;28;20111;-69
2021/03/28 05:10:21;;;;;;;5.28;4.38;;;4.30;99.90;;;;;;5027717;28;20018;-68
2021/03/28 05:13:14;;;;;;;7.35;4.75;;;4.30;99.90;;;;;;5029908;28;20033;-68
2021/03/28 05:15:51;;;;;;;10.95;4.80;;;4.40;99.90;;;;;;5024235;28;20100;-69
2021/03/28 05:18:53;;;;;;;8.75;4.93;;;4.30;99.90;;;;;;5011630;28;20022;-68
2021/03/28 05:21:40;;;;;;;8.13;5.22;;;4.10;99.90;;;;;;5018903;28;20497;-68
2021/03/28 05:24:18;;;;;;;7.97;5.13;;;4.20;99.90;;;;;;5026484;28;20057;-68
2021/03/28 05:27:14;;;;;;;4.75;4.25;;;4.30;99.90;;;;;;5028031;28;20051;-68
2021/03/28 05:30:16;;;;;;;6.03;3.63;;;4.30;99.90;;;;;;5020175;28;20037;-68
2021/03/28 05:33:03;;;;;;;7.20;4.20;;;4.20;99.90;;;;;;5023506;28;20049;-68
2021/03/28 05:35:31;;;;;;;10.60;5.28;;;4.20;99.90;;;;;;5023046;28;20496;-68
2021/03/28 05:38:33;;;;;;;8.02;5.07;;;3.90;99.90;;;;;;5023504;28;20112;-67
2021/03/28 05:41:37;;;;;;;9.05;5.22;;;5.00;99.90;;;;;;5021286;28;20037;-67
2021/03/28 05:44:44;;;;;;;8.38;5.10;;;4.30;99.90;;;;;;5026430;28;20068;-67
2021/03/28 05:47:21;;;;;;;5.20;4.53;;;4.30;99.90;;;;;;5012089;28;20041;-67
2021/03/28 05:50:12;;;;;;;9.73;5.43;;;4.40;99.90;;;;;;5021751;28;20027;-67
2021/03/28 05:52:40;;;;;;;7.40;5.10;;;4.10;99.90;;;;;;5018804;28;20488;-67
2021/03/28 05:55:50;;;;;;;4.75;3.65;;;4.30;99.90;;;;;;5025026;28;20037;-67
2021/03/28 05:58:21;;;;;;;6.75;4.03;;;4.00;99.90;;;;;;5017189;28;20044;-67
2021/03/28 06:01:18;;;;;;;8.77;5.43;;;3.60;99.90;;;;;;5024371;28;20056;-67
2021/03/28 06:04:05;;;;;;;13.38;7.80;;;3.90;99.90;;;;;;5029330;28;20520;-67
2021/03/28 06:06:37;;;;;;;19.63;10.10;;;3.80;99.90;;;;;;5023949;28;20149;-67
2021/03/28 06:09:02;;;;;;;16.33;8.52;;;4.00;99.90;;;;;;5017411;28;20025;-66
2021/03/28 06:11:31;;;;;;;10.88;7.97;;;3.90;99.90;;;;;;5026474;28;20634;-66
2021/03/28 06:14:34;;;;;;;20.27;9.35;;;3.90;99.90;;;;;;5025134;28;20029;-67
2021/03/28 06:17:17;;;;;;;10.45;7.68;;;3.80;99.90;;;;;;5027401;28;20029;-67
2021/03/28 06:20:13;;;;;;;11.73;7.70;;;4.00;99.90;;;;;;5022459;28;20126;-67
2021/03/28 06:22:52;;;;;;;10.48;7.75;;;4.10;99.90;;;;;;5017397;28;20112;-67
2021/03/28 06:25:37;;;;;;;11.23;7.53;;;4.10;99.90;;;;;;5021492;28;20583;-67
2021/03/28 06:28:05;;;;;;;15.65;8.10;;;4.20;99.90;;;;;;5027063;28;20069;-67
2021/03/28 06:30:34;;;;;;;14.10;8.02;;;4.20;99.90;;;;;;5014139;28;20091;-67
2021/03/28 06:33:25;;;;;;;13.18;6.55;;;4.30;99.90;;;;;;5027920;28;20716;-67
2021/03/28 06:36:12;;;;;;;11.75;7.95;;;4.20;99.90;;;;;;5020522;28;20064;-68
2021/03/28 06:39:11;;;;;;;15.02;7.57;;;4.30;99.90;;;;;;5009335;28;20145;-67
2021/03/28 06:41:38;;;;;;;11.85;7.03;;;4.60;99.90;;;;;;5019948;28;20611;-67
2021/03/28 06:44:41;;;;;;;17.10;6.15;;;4.50;99.90;;;;;;5026955;28;20021;-67
2021/03/28 06:47:35;;;;;;;9.18;6.22;;;4.90;99.90;;;;;;5025625;28;20030;-67
2021/03/28 06:50:34;;;;;;;13.95;5.90;;;5.00;99.90;;;;;;5023231;28;20051;-67
2021/03/28 06:53:06;;;;;;;13.38;6.50;;;4.90;99.90;;;;;;5009475;28;20045;-67
2021/03/28 06:55:39;;;;;;;13.60;6.43;;;5.10;99.90;;;;;;5018548;28;20057;-67
2021/03/28 06:58:23;;;;;;;9.85;5.80;;;5.30;99.90;;;;;;5018188;28;20026;-67
2021/03/28 07:00:58;;;;;;;8.98;6.03;;;5.40;99.90;;;;;;5017452;28;20025;-67
2021/03/28 07:03:43;;;;;;;14.38;6.97;;;5.40;99.90;;;;;;5015005;28;20591;-67
2021/03/28 07:06:59;;;;;;;12.63;5.80;;;5.50;99.90;;;;;;5015429;28;20132;-67
2021/03/28 07:09:46;;;;;;;10.95;5.78;;;5.50;99.90;;;;;;4992298;28;20103;-67
2021/03/28 07:12:36;;;;;;;15.38;5.80;;;5.60;99.90;;;;;;4997515;28;20042;-67
2021/03/28 07:15:01;;;;;;;11.20;5.43;;;5.70;99.90;;;;;;5017227;28;20038;-67
2021/03/28 07:17:55;;;;;;;11.82;5.82;;;5.70;99.90;;;;;;5028575;28;20037;-67
2021/03/28 07:20:41;;;;;;;10.00;5.55;;;5.80;99.90;;;;;;5022125;28;20034;-67
2021/03/28 07:23:19;;;;;;;7.75;5.72;;;5.90;99.90;;;;;;5021299;28;20532;-67
2021/03/28 07:26:05;;;;;;;13.52;6.93;;;6.10;99.90;;;;;;5022153;28;20482;-68
2021/03/28 07:28:53;;;;;;;10.25;6.47;;;6.20;99.90;;;;;;5016768;28;20522;-68
2021/03/28 07:31:40;;;;;;;11.82;6.60;;;6.40;99.90;;;;;;5025302;28;20034;-67
2021/03/28 07:34:17;;;;;;;9.70;5.53;;;6.40;99.90;;;;;;5024675;28;20048;-68
2021/03/28 07:37:18;;;;;;;11.48;5.40;;;6.60;99.90;;;;;;5023018;28;20029;-68
2021/03/28 07:40:25;;;;;;;16.90;7.15;;;6.50;99.90;;;;;;5020572;28;20017;-68
2021/03/28 07:43:10;;;;;;;10.23;6.35;;;6.60;99.90;;;;;;5019813;28;20061;-68
2021/03/28 07:45:55;;;;;;;12.35;5.75;;;6.80;99.90;;;;;;5022126;28;20101;-68
2021/03/28 07:48:57;;;;;;;13.40;6.20;;;6.70;99.90;;;;;;5027934;28;20045;-68
2021/03/28 07:51:35;;;;;;;11.93;6.43;;;6.90;99.90;;;;;;5021904;28;20038;-68
2021/03/28 07:54:09;;;;;;;9.57;6.10;;;6.90;99.90;;;;;;5023716;28;20029;-69
2021/03/28 07:57:19;;;;;;;13.77;5.95;;;7.00;99.90;;;;;;5021377;28;20030;-69
2021/03/28 07:59:59;;;;;;;14.90;6.25;;;7.30;99.90;;;;;;4985501;28;20042;-69
2021/03/28 08:03:02;;;;;;;7.80;5.85;;;7.60;99.90;;;;;;5022158;28;20052;-69
2021/03/28 08:05:40;;;;;;;9.18;5.78;;;7.80;99.90;;;;;;5020170;28;20590;-69
2021/03/28 08:08:47;;;;;;;9.20;6.32;;;7.90;99.90;;;;;;5027988;28;20564;-69
2021/03/28 08:11:18;;;;;;;9.65;5.55;;;8.10;99.90;;;;;;5022061;28;20534;-69
2021/03/28 08:14:29;;;;;;;10.88;5.68;;;8.30;99.90;;;;;;5029375;28;20624;-69
2021/03/28 08:17:26;;;;;;;9.75;4.72;;;8.50;99.90;;;;;;5029567;28;20030;-69
2021/03/28 08:20:00;;;;;;;14.85;5.50;;;8.90;99.90;;;;;;5018904;28;20629;-68
2021/03/28 08:22:56;;;;;;;12.43;5.50;;;8.80;99.90;;;;;;5025028;28;20053;-69
2021/03/28 08:25:40;;;;;;;10.15;4.95;;;8.80;99.90;;;;;;5019467;28;20036;-69
2021/03/28 08:28:14;;;;;;;13.30;5.63;;;9.10;99.90;;;;;;5030710;28;20132;-69
2021/03/28 08:31:07;;;;;;;11.60;5.50;;;9.20;99.90;;;;;;5028282;28;20363;-69
2021/03/28 08:33:56;;;;;;;14.57;4.78;;;9.40;99.90;;;;;;5013749;28;20041;-69
2021/03/28 08:36:59;;;;;;;12.40;4.93;;;9.60;99.90;;;;;;5024058;28;20518;-69
2021/03/28 08:39:44;;;;;;;7.65;4.32;;;9.70;99.90;;;;;;5017355;28;20108;-69
2021/03/28 08:42:51;;;;;;;9.93;3.88;;;9.90;99.90;;;;;;5015191;28;20030;-68
2021/03/28 08:45:26;;;;;;;5.50;4.05;;;10.00;99.90;;;;;;5021307;28;20050;-68
2021/03/28 08:47:58;;;;;;;9.05;4.28;;;10.30;99.90;;;;;;5014953;28;20368;-68
2021/03/28 08:50:51;;;;;;;10.23;4.20;;;10.30;99.90;;;;;;5024752;28;20485;-68
2021/03/28 08:53:26;;;;;;;17.10;5.03;;;10.70;99.90;;;;;;5018672;28;20368;-69
2021/03/28 08:56:17;;;;;;;9.38;3.83;;;10.80;99.90;;;;;;5021406;28;20064;-69
2021/03/28 08:59:01;;;;;;;10.65;3.50;;;10.90;99.90;;;;;;5030581;28;20036;-69
2021/03/28 09:01:47;;;;;;;8.40;3.75;;;10.90;99.90;;;;;;5020881;28;20504;-68
2021/03/28 09:04:38;;;;;;;11.38;4.45;;;11.10;99.90;;;;;;5028792;28;20026;-69
2021/03/28 09:07:20;;;;;;;8.55;4.03;;;11.40;99.90;;;;;;5021229;28;20457;-66
2021/03/28 09:09:52;;;;;;;10.63;3.63;;;11.90;99.90;;;;;;5028282;28;20068;-66
2021/03/28 09:12:55;;;;;;;8.55;3.17;;;11.80;99.90;;;;;;5028509;28;20573;-67
2021/03/28 09:15:53;;;;;;;10.32;3.38;;;12.10;99.90;;;;;;5015629;28;20022;-67
2021/03/28 09:18:42;;;;;;;9.02;3.50;;;12.20;99.90;;;;;;5015165;28;20056;-67
2021/03/28 09:21:33;;;;;;;8.98;3.55;;;12.10;99.90;;;;;;5023009;28;20104;-66
2021/03/28 09:24:17;;;;;;;9.68;2.85;;;12.30;99.90;;;;;;5016982;28;20028;-66
2021/03/28 09:27:00;;;;;;;7.18;2.95;;;12.50;99.90;;;;;;5024255;28;20017;-66
2021/03/28 09:29:45;;;;;;;9.60;3.17;;;12.80;99.90;;;;;;5019602;28;20036;-66
2021/03/28 09:32:34;;;;;;;9.43;3.17;;;13.10;99.90;;;;;;5021782;28;20084;-66
2021/03/28 09:35:12;;;;;;;7.18;3.38;;;13.20;99.90;;;;;;5020385;28;20052;-66
2021/03/28 09:38:19;;;;;;;9.82;2.50;;;13.50;99.90;;;;;;5028103;28;20053;-68
2021/03/28 09:41:27;;;;;;;4.80;1.90;;;13.70;99.90;;;;;;5012158;28;20045;-66
2021/03/28 09:44:30;;;;;;;7.30;2.40;;;14.10;99.90;;;;;;5022934;28;20032;-65
2021/03/28 09:47:14;;;;;;;5.22;2.80;;;14.50;99.90;;;;;;5023080;28;20018;-66
2021/03/28 09:49:59;;;;;;;6.10;2.72;;;14.00;99.90;;;;;;5019880;28;20372;-66
2021/03/28 09:53:04;;;;;;;9.45;2.17;;;14.20;99.90;;;;;;5017087;28;20567;-68
2021/03/28 09:55:45;;;;;;;6.03;2.05;;;14.80;99.90;;;;;;5023128;28;20026;-67
2021/03/28 09:58:51;;;;;;;5.35;2.10;;;15.10;99.90;;;;;;5021728;28;20021;-66
2021/03/28 10:01:43;;;;;;;5.60;2.85;;;15.20;99.90;;;;;;5023533;28;20076;-67
2021/03/28 10:04:32;;;;;;;5.43;2.15;;;15.40;99.90;;;;;;5022168;28;20632;-67
2021/03/28 10:07:01;;;;;;;3.65;1.77;;;15.30;99.90;;;;;;5020818;28;20069;-65
2021/03/28 10:09:37;;;;;;;8.05;2.08;;;15.70;99.90;;;;;;5026113;28;20025;-66
2021/03/28 10:12:20;;;;;;;6.47;2.35;;;16.00;99.90;;;;;;5028433;28;20136;-71
2021/03/28 10:15:14;;;;;;;7.05;2.38;;;15.60;99.90;;;;;;5023792;28;20030;-68
2021/03/28 10:17:46;;;;;;;6.78;2.03;;;15.90;99.90;;;;;;5019368;28;20540;-66
2021/03/28 10:20:26;;;;;;;7.97;2.05;;;15.80;99.90;;;;;;5024114;28;20025;-65
2021/03/28 10:23:33;;;;;;;8.13;1.90;;;16.20;99.90;;;;;;5029506;28;20041;-67
2021/03/28 10:26:19;;;;;;;6.47;1.75;;;16.10;99.90;;;;;;5024859;28;20042;-70
2021/03/28 10:29:35;;;;;;;3.58;1.90;;;16.40;99.90;;;;;;5028955;28;20021;-66
2021/03/28 10:32:34;;;;;;;6.35;2.22;;;16.50;99.90;;;;;;5016264;28;20445;-70
2021/03/28 10:35:16;;;;;;;5.30;1.75;;;16.40;99.90;;;;;;5024414;28;20116;-70
2021/03/28 10:38:03;;;;;;;3.03;1.70;;;16.60;99.90;;;;;;5025884;28;20017;-68
2021/03/28 10:40:53;;;;;;;3.80;1.70;;;17.00;99.90;;;;;;5021819;28;20029;-65
2021/03/28 10:43:37;;;;;;;6.90;2.22;;;17.40;99.90;;;;;;5019853;28;20037;-65
2021/03/28 10:46:15;;;;;;;4.82;2.03;;;17.40;99.90;;;;;;5026472;28;20036;-72
2021/03/28 10:49:02;;;;;;;5.78;2.40;;;17.70;99.70;;;;;;5022283;28;20033;-65
2021/03/28 10:52:26;;;;;;;6.82;1.98;;;17.90;98.70;;;;;;5022947;28;20104;-65
2021/03/28 10:54:54;;;;;;;10.57;2.60;;;17.70;98.90;;;;;;5001789;28;20046;-65
2021/03/28 10:57:42;;;;;;;8.68;1.90;;;18.00;99.10;;;;;;5023768;28;20040;-68
2021/03/28 11:00:26;;;;;;;5.95;3.47;;;18.10;98.10;;;;;;5022420;28;20041;-65
2021/03/28 11:03:22;;;;;;;7.18;2.30;;;18.00;97.40;;;;;;5027297;28;20057;-68
2021/03/28 11:06:25;;;;;;;3.50;2.23;;;18.10;98.30;;;;;;5018024;28;20064;-66
2021/03/28 11:09:24;;;;;;;4.57;1.77;;;18.30;96.70;;;;;;5016665;28;20277;-66
2021/03/28 11:12:05;;;;;;;5.28;2.53;;;18.20;98.30;;;;;;5018201;28;20588;-67
2021/03/28 11:14:46;;;;;;;5.57;2.13;;;18.00;97.20;;;;;;5023376;28;20439;-65
2021/03/28 11:17:40;;;;;;;6.22;2.03;;;17.80;96.90;;;;;;5028465;28;20227;-66
2021/03/28 11:20:23;;;;;;;6.07;2.03;;;18.70;96.80;;;;;;5017245;28;20056;-65
2021/03/28 11:23:27;;;;;;;4.55;1.95;;;19.20;96.90;;;;;;5026424;28;20528;-66
2021/03/28 11:25:56;;;;;;;8.00;1.95;;;19.30;96.20;;;;;;5022143;28;20028;-66
2021/03/28 11:28:36;;;;;;;4.72;2.33;;;19.60;96.40;;;;;;5023989;28;20029;-67
2021/03/28 11:31:14;;;;;;;5.25;2.00;;;19.70;96.70;;;;;;5019654;28;20066;-66
2021/03/28 11:33:56;;;;;;;4.53;1.92;;;19.70;95.60;;;;;;5015758;28;20025;-66
2021/03/28 11:36:27;;;;;;;5.90;1.90;;;19.90;96.20;;;;;;5019477;28;20084;-66
2021/03/28 11:39:17;;;;;;;5.25;1.80;;;19.50;94.80;;;;;;5012149;28;20391;-67
2021/03/28 11:41:52;;;;;;;5.53;2.28;;;20.00;95.20;;;;;;5024247;28;20489;-66
2021/03/28 11:44:23;;;;;;;3.42;1.77;;;20.40;94.90;;;;;;5026794;28;20017;-66
2021/03/28 11:46:54;;;;;;;6.63;2.08;;;20.80;94.60;;;;;;5027048;28;20025;-66
2021/03/28 11:49:25;;;;;;;6.07;2.20;;;20.60;94.00;;;;;;5029348;28;20113;-67
2021/03/28 11:51:50;;;;;;;6.70;2.00;;;21.00;94.50;;;;;;5020735;28;20124;-66
2021/03/28 11:54:22;;;;;;;4.90;2.00;;;20.90;94.20;;;;;;5020422;28;20829;-73
2021/03/28 11:57:15;;;;;;;4.07;1.73;;;21.30;93.80;;;;;;5030719;28;20087;-73
2021/03/28 11:59:51;;;;;;;4.57;2.05;;;21.10;93.30;;;;;;5027974;28;20041;-73
2021/03/28 12:02:24;;;;;;;;;;;21.00;92.50;;;;;;5030426;28;20014;-72
2021/03/28 12:05:10;;;;;;;3.60;1.83;;;20.80;93.40;;;;;;5028133;28;19963;-71
2021/03/28 12:07:42;;;;;;;4.13;2.13;;;21.10;93.30;;;;;;5026107;28;20138;-71
2021/03/28 12:10:08;;;;;;;9.20;2.60;;;21.50;92.10;;;;;;5025921;28;20037;-70
2021/03/28 12:12:54;;;;;;;7.20;2.53;;;21.60;91.80;;;;;;5027176;28;20057;-70
2021/03/28 12:15:47;;;;;;;5.10;2.15;;;21.60;92.60;;;;;;5022932;28;20066;-71
2021/03/28 12:18:31;;;;;;;4.82;2.08;;;21.80;92.30;;;;;;5017348;28;20037;-75
2021/03/28 12:21:02;;;;;;;5.03;2.20;;;21.50;91.80;;;;;;5022966;28;20184;-72
2021/03/28 12:23:42;;;;;;;4.07;2.05;;;21.50;90.40;;;;;;5026697;28;20033;-70
2021/03/28 12:26:14;;;;;;;5.43;2.47;;;21.80;91.80;;;;;;5017752;28;21739;-74
2021/03/28 12:28:48;;;;;;;3.75;2.20;;;22.30;90.60;;;;;;5028460;28;20513;-70
2021/03/28 12:31:41;;;;;;;5.70;1.92;;;22.30;90.20;;;;;;5020527;28;20611;-70
2021/03/28 12:34:31;;;;;;;6.03;2.17;;;22.20;90.10;;;;;;5026021;28;20095;-70
2021/03/28 12:37:10;;;;;;;3.30;1.70;;;22.80;91.00;;;;;;5021786;28;20479;-71
2021/03/28 12:39:41;;;;;;;3.50;2.30;;;22.60;89.80;;;;;;5027012;28;20587;-71
2021/03/28 12:42:42;;;;;;;4.35;2.20;;;22.10;89.10;;;;;;5015955;28;20022;-70
2021/03/28 12:45:08;;;;;;;6.00;2.38;;;22.70;88.70;;;;;;5022136;28;20553;-71
2021/03/28 12:47:37;;;;;;;8.57;2.22;;;22.70;89.30;;;;;;5028816;28;20125;-71
2021/03/28 12:50:15;;;;;;;5.72;2.40;;;22.30;87.20;;;;;;5024640;28;20576;-70
2021/03/28 12:52:47;;;;;;;6.13;1.98;;;22.80;88.40;;;;;;5028437;28;20037;-70
2021/03/28 12:55:24;;;;;;;5.38;2.50;;;22.80;87.50;;;;;;5024289;28;20018;-70
2021/03/28 12:57:54;;;;;;;5.90;2.50;;;23.30;88.10;;;;;;5026722;28;20021;-71
2021/03/28 13:00:38;;;;;;;6.18;2.30;;;24.00;88.20;;;;;;5025980;28;20402;-72
2021/03/28 13:03:15;;;;;;;7.72;2.40;;;24.00;85.00;;;;;;5030236;28;20574;-70
2021/03/28 13:06:02;;;;;;;8.52;3.00;;;23.80;89.30;;;;;;5027367;28;20080;-74
2021/03/28 13:08:31;;;;;;;6.85;2.88;;;23.30;86.50;;;;;;5028441;28;20029;-75
2021/03/28 13:10:59;;;;;;;6.45;2.45;;;22.90;84.00;;;;;;5021268;28;20088;-70
2021/03/28 13:13:26;;;;;;;4.78;2.50;;;23.00;85.70;;;;;;5022597;28;20060;-73
2021/03/28 13:15:54;;;;;;;4.35;2.35;;;23.20;85.70;;;;;;5015859;28;20700;-70
2021/03/28 13:18:20;;;;;;;8.25;4.03;;;24.00;85.80;;;;;;5025181;28;20552;-70
2021/03/28 13:20:51;;;;;;;11.57;3.80;;;24.10;84.10;;;;;;5023483;28;20025;-70
2021/03/28 13:23:35;;;;;;;5.57;2.70;;;24.80;84.20;;;;;;5030714;28;20022;-70
2021/03/28 13:26:15;;;;;;;4.93;2.58;;;24.00;82.60;;;;;;5022880;28;20099;-70
2021/03/28 13:29:01;;;;;;;4.97;2.30;;;24.40;85.50;;;;;;5029876;28;20095;-71
2021/03/28 13:31:32;;;;;;;10.10;3.00;;;24.90;83.90;;;;;;5025870;28;20055;-69
2021/03/28 13:34:20;;;;;;;5.32;2.78;;;24.80;81.10;;;;;;5028993;28;20538;-70
2021/03/28 13:36:56;;;;;;;6.28;2.38;;;24.80;80.80;;;;;;5020721;28;20044;-71
2021/03/28 13:39:22;;;;;;;7.20;2.13;;;24.90;81.30;;;;;;5027230;28;20457;-71
2021/03/28 13:42:34;;;;;;;7.82;2.50;;;25.30;82.50;;;;;;5023476;28;20653;-72
2021/03/28 13:45:25;;;;;;;5.63;2.67;;;24.80;80.30;;;;;;5016943;28;20061;-71
2021/03/28 13:47:57;;;;;;;7.90;2.80;;;24.90;79.70;;;;;;5023453;28;20037;-70
2021/03/28 13:50:41;;;;;;;5.45;2.30;;;25.00;80.40;;;;;;5026136;28;20497;-71
2021/03/28 13:53:28;;;;;;;10.32;3.40;;;25.80;81.30;;;;;;5025502;28;20044;-70
2021/03/28 13:56:24;;;;;;;7.00;2.58;;;25.60;79.40;;;;;;5023011;28;20021;-73
2021/03/28 13:59:20;;;;;;;5.78;2.10;;;25.60;79.20;;;;;;5027170;28;20040;-72
2021/03/28 14:01:53;;;;;;;7.80;2.75;;;26.00;80.40;;;;;;5016999;28;20052;-71
2021/03/28 14:04:28;;;;;;;5.45;2.72;;;26.30;79.70;;;;;;5025923;28;20017;-71
2021/03/28 14:07:16;;;;;;;8.95;2.85;;;26.50;79.10;;;;;;5028081;28;20628;-72
2021/03/28 14:09:54;;;;;;;6.93;2.70;;;26.00;79.40;;;;;;5023821;28;20100;-72
2021/03/28 14:12:43;;;;;;;6.00;2.53;;;26.20;76.40;;;;;;5026310;28;20041;-74
2021/03/28 14:15:15;;;;;;;6.35;2.90;;;25.70;77.50;;;;;;5017750;28;20127;-73
2021/03/28 14:17:42;;;;;;;7.63;2.90;;;25.60;75.90;;;;;;5027915;28;20131;-75
2021/03/28 14:20:26;;;;;;;6.82;3.05;;;25.40;75.80;;;;;;5022652;28;20438;-71